sensor_id;sensor_type;location;lat;lon;timestamp;pressure;altitude;pressure_sealevel;temperature;humidity
19526;BME280;9907;42.676;26.348;2023-02-07T00:01:16;100281.03;;;-1.40;63.99
19526;BME280;9907;42.676;26.348;2023-02-07T00:03:43;100253.31;;;-1.52;65.22
19526;BME280;9907;42.676;26.348;2023-02-07T00:06:27;100287.38;;;-1.52;65.37
19526;BME280;9907;42.676;26.348;2023-02-07T00:08:52;100288.16;;;-1.49;64.42
19526;BME280;9907;42.676;26.348;2023-02-07T00:11:20;100275.03;;;-1.47;64.35
19526;BME280;9907;42.676;26.348;2023-02-07T00:13:49;100313.47;;;-1.48;64.65
19526;BME280;9907;42.676;26.348;2023-02-07T00:16:15;100296.38;;;-1.65;64.55
19526;BME280;9907;42.676;26.348;2023-02-07T00:18:40;100297.91;;;-1.55;65.22
19526;BME280;9907;42.676;26.348;2023-02-07T00:21:18;100280.41;;;-1.53;64.75
19526;BME280;9907;42.676;26.348;2023-02-07T00:23:45;100304.47;;;-1.36;65.39
19526;BME280;9907;42.676;26.348;2023-02-07T00:26:12;100299.38;;;-1.42;64.99
19526;BME280;9907;42.676;26.348;2023-02-07T00:28:38;100301.28;;;-1.50;65.81
19526;BME280;9907;42.676;26.348;2023-02-07T00:31:14;100283.72;;;-1.45;66.55
19526;BME280;9907;42.676;26.348;2023-02-07T00:33:41;100277.63;;;-1.45;66.81
19526;BME280;9907;42.676;26.348;2023-02-07T00:36:09;100305.75;;;-1.55;66.39
19526;BME280;9907;42.676;26.348;2023-02-07T00:38:36;100272.63;;;-1.58;66.34
19526;BME280;9907;42.676;26.348;2023-02-07T00:41:02;100291.03;;;-1.59;67.05
19526;BME280;9907;42.676;26.348;2023-02-07T00:43:28;100297.06;;;-1.56;68.08
19526;BME280;9907;42.676;26.348;2023-02-07T00:45:54;100307.47;;;-1.53;67.67
19526;BME280;9907;42.676;26.348;2023-02-07T00:48:20;100317.16;;;-1.56;67.84
19526;BME280;9907;42.676;26.348;2023-02-07T00:50:45;100341.63;;;-1.57;66.67
19526;BME280;9907;42.676;26.348;2023-02-07T00:53:11;100307.50;;;-1.54;67.45
19526;BME280;9907;42.676;26.348;2023-02-07T00:55:36;100308.28;;;-1.49;68.17
19526;BME280;9907;42.676;26.348;2023-02-07T00:58:02;100297.00;;;-1.53;67.86
19526;BME280;9907;42.676;26.348;2023-02-07T01:00:28;100319.50;;;-1.44;67.99
19526;BME280;9907;42.676;26.348;2023-02-07T01:02:53;100315.19;;;-1.45;67.79
19526;BME280;9907;42.676;26.348;2023-02-07T01:05:19;100300.50;;;-1.54;68.52
19526;BME280;9907;42.676;26.348;2023-02-07T01:07:44;100318.03;;;-1.56;68.83
19526;BME280;9907;42.676;26.348;2023-02-07T01:10:10;100318.06;;;-1.59;68.02
19526;BME280;9907;42.676;26.348;2023-02-07T01:12:35;100311.91;;;-1.56;67.95
19526;BME280;9907;42.676;26.348;2023-02-07T01:15:01;100313.59;;;-1.52;68.28
19526;BME280;9907;42.676;26.348;2023-02-07T01:17:26;100320.50;;;-1.50;68.19
19526;BME280;9907;42.676;26.348;2023-02-07T01:19:56;100308.13;;;-1.43;68.22
19526;BME280;9907;42.676;26.348;2023-02-07T01:22:26;100321.16;;;-1.38;68.07
19526;BME280;9907;42.676;26.348;2023-02-07T01:24:52;100320.34;;;-1.42;69.09
19526;BME280;9907;42.676;26.348;2023-02-07T01:27:20;100303.97;;;-1.53;69.00
19526;BME280;9907;42.676;26.348;2023-02-07T01:29:45;100297.06;;;-1.56;68.24
19526;BME280;9907;42.676;26.348;2023-02-07T01:32:11;100308.13;;;-1.43;67.65
19526;BME280;9907;42.676;26.348;2023-02-07T01:34:36;100320.41;;;-1.45;67.64
19526;BME280;9907;42.676;26.348;2023-02-07T01:37:02;100317.06;;;-1.52;67.85
19526;BME280;9907;42.676;26.348;2023-02-07T01:39:27;100287.25;;;-1.48;67.93
19526;BME280;9907;42.676;26.348;2023-02-07T01:41:53;100308.28;;;-1.49;66.51
19526;BME280;9907;42.676;26.348;2023-02-07T01:47:10;100311.72;;;-1.47;66.25
19526;BME280;9907;42.676;26.348;2023-02-07T01:49:38;100321.16;;;-1.38;66.44
19526;BME280;9907;42.676;26.348;2023-02-07T01:52:10;100324.50;;;-1.32;66.37
19526;BME280;9907;42.676;26.348;2023-02-07T01:54:37;100302.78;;;-1.37;66.39
19526;BME280;9907;42.676;26.348;2023-02-07T01:57:06;100306.22;;;-1.35;66.61
19526;BME280;9907;42.676;26.348;2023-02-07T01:59:34;100311.56;;;-1.39;66.55
19526;BME280;9907;42.676;26.348;2023-02-07T02:02:03;100304.31;;;-1.27;67.51
19526;BME280;9907;42.676;26.348;2023-02-07T02:04:30;100314.78;;;-1.27;66.78
19526;BME280;9907;42.676;26.348;2023-02-07T02:06:56;100301.47;;;-1.18;67.19
19526;BME280;9907;42.676;26.348;2023-02-07T02:09:22;100312.88;;;-1.19;67.58
19526;BME280;9907;42.676;26.348;2023-02-07T02:34:43;100342.34;;;-1.49;65.16
19526;BME280;9907;42.676;26.348;2023-02-07T02:42:34;100352.69;;;-1.43;63.85
19526;BME280;9907;42.676;26.348;2023-02-07T02:45:10;100343.97;;;-1.43;64.85
19526;BME280;9907;42.676;26.348;2023-02-07T02:47:38;100347.38;;;-1.38;63.48
19526;BME280;9907;42.676;26.348;2023-02-07T02:50:11;100352.66;;;-1.41;63.22
19526;BME280;9907;42.676;26.348;2023-02-07T02:52:36;100350.91;;;-1.41;63.47
19526;BME280;9907;42.676;26.348;2023-02-07T02:55:02;100352.59;;;-1.38;63.62
19526;BME280;9907;42.676;26.348;2023-02-07T03:08:49;100359.91;;;-1.54;63.84
19526;BME280;9907;42.676;26.348;2023-02-07T03:11:21;100372.22;;;-1.58;62.39
19526;BME280;9907;42.676;26.348;2023-02-07T03:14:15;100362.47;;;-1.51;63.17
19526;BME280;9907;42.676;26.348;2023-02-07T03:17:27;100363.47;;;-1.58;64.02
19526;BME280;9907;42.676;26.348;2023-02-07T03:20:20;100354.94;;;-1.68;63.40
19526;BME280;9907;42.676;26.348;2023-02-07T03:22:47;100352.25;;;-1.63;63.84
19526;BME280;9907;42.676;26.348;2023-02-07T03:25:15;100361.34;;;-1.39;61.95
19526;BME280;9907;42.676;26.348;2023-02-07T03:27:43;100356.41;;;-1.53;62.35
19526;BME280;9907;42.676;26.348;2023-02-07T03:30:12;100331.94;;;-1.52;61.80
19526;BME280;9907;42.676;26.348;2023-02-07T03:32:42;100360.72;;;-1.51;62.11
19526;BME280;9907;42.676;26.348;2023-02-07T03:38:13;100341.56;;;-1.54;60.90
19526;BME280;9907;42.676;26.348;2023-02-07T03:40:45;100346.06;;;-1.59;61.24
19526;BME280;9907;42.676;26.348;2023-02-07T03:43:17;100353.00;;;-1.58;62.53
19526;BME280;9907;42.676;26.348;2023-02-07T03:45:44;100353.78;;;-1.55;60.94
19526;BME280;9907;42.676;26.348;2023-02-07T03:48:10;100367.84;;;-1.57;61.26
19526;BME280;9907;42.676;26.348;2023-02-07T03:50:35;100362.47;;;-1.51;61.61
19526;BME280;9907;42.676;26.348;2023-02-07T03:53:01;100380.88;;;-1.54;61.64
19526;BME280;9907;42.676;26.348;2023-02-07T03:55:27;100375.03;;;-1.68;61.14
19526;BME280;9907;42.676;26.348;2023-02-07T03:57:53;100378.59;;;-1.72;61.62
19526;BME280;9907;42.676;26.348;2023-02-07T04:00:19;100376.72;;;-1.64;60.45
19526;BME280;9907;42.676;26.348;2023-02-07T04:02:44;100378.44;;;-1.63;61.10
19526;BME280;9907;42.676;26.348;2023-02-07T04:05:10;100370.75;;;-1.72;60.15
19526;BME280;9907;42.676;26.348;2023-02-07T04:07:36;100377.66;;;-1.67;60.49
19526;BME280;9907;42.676;26.348;2023-02-07T04:10:03;100387.97;;;-1.59;58.58
19526;BME280;9907;42.676;26.348;2023-02-07T04:12:29;100375.91;;;-1.69;57.55
19526;BME280;9907;42.676;26.348;2023-02-07T04:15:01;100348.97;;;-1.76;58.10
19526;BME280;9907;42.676;26.348;2023-02-07T04:17:27;100368.47;;;-1.90;58.40
19526;BME280;9907;42.676;26.348;2023-02-07T04:19:53;100365.72;;;-1.83;57.76
19526;BME280;9907;42.676;26.348;2023-02-07T04:22:18;100378.00;;;-1.86;56.38
19526;BME280;9907;42.676;26.348;2023-02-07T04:24:45;100371.81;;;-1.82;57.02
19526;BME280;9907;42.676;26.348;2023-02-07T04:27:10;100386.75;;;-1.87;56.58
19526;BME280;9907;42.676;26.348;2023-02-07T04:29:36;100408.50;;;-1.82;57.03
19526;BME280;9907;42.676;26.348;2023-02-07T04:32:01;100406.13;;;-1.98;57.13
19526;BME280;9907;42.676;26.348;2023-02-07T04:34:27;100395.47;;;-1.88;56.66
19526;BME280;9907;42.676;26.348;2023-02-07T04:36:53;100399.75;;;-1.83;56.92
19526;BME280;9907;42.676;26.348;2023-02-07T04:39:18;100410.25;;;-1.84;56.50
19526;BME280;9907;42.676;26.348;2023-02-07T04:41:47;100415.78;;;-2.00;56.73
19526;BME280;9907;42.676;26.348;2023-02-07T04:44:12;100408.00;;;-2.04;57.58
19526;BME280;9907;42.676;26.348;2023-02-07T04:46:38;100410.38;;;-1.90;56.88
19526;BME280;9907;42.676;26.348;2023-02-07T04:49:03;100425.69;;;-1.69;57.16
19526;BME280;9907;42.676;26.348;2023-02-07T04:51:29;100417.41;;;-1.92;56.32
19526;BME280;9907;42.676;26.348;2023-02-07T04:53:55;100415.72;;;-1.97;55.39
19526;BME280;9907;42.676;26.348;2023-02-07T04:56:22;100444.78;;;-2.12;54.17
19526;BME280;9907;42.676;26.348;2023-02-07T04:58:47;100418.47;;;-2.04;54.77
19526;BME280;9907;42.676;26.348;2023-02-07T05:01:13;100414.00;;;-1.98;54.69
19526;BME280;9907;42.676;26.348;2023-02-07T05:03:39;100413.16;;;-2.00;55.38
19526;BME280;9907;42.676;26.348;2023-02-07T05:06:05;100415.78;;;-2.00;54.97
19526;BME280;9907;42.676;26.348;2023-02-07T05:08:31;100408.22;;;-2.18;56.26
19526;BME280;9907;42.676;26.348;2023-02-07T05:10:56;100414.38;;;-2.19;55.86
19526;BME280;9907;42.676;26.348;2023-02-07T05:13:22;100416.06;;;-2.18;55.98
19526;BME280;9907;42.676;26.348;2023-02-07T05:15:48;100429.97;;;-2.13;55.26
19526;BME280;9907;42.676;26.348;2023-02-07T05:18:14;100411.63;;;-2.13;55.93
19526;BME280;9907;42.676;26.348;2023-02-07T05:20:40;100411.69;;;-2.16;55.93
19526;BME280;9907;42.676;26.348;2023-02-07T05:23:06;100425.34;;;-1.99;55.81
19526;BME280;9907;42.676;26.348;2023-02-07T05:25:31;100429.16;;;-2.16;55.70
19526;BME280;9907;42.676;26.348;2023-02-07T05:27:57;100428.22;;;-2.14;55.90
19526;BME280;9907;42.676;26.348;2023-02-07T05:30:23;100436.19;;;-2.18;55.68
19526;BME280;9907;42.676;26.348;2023-02-07T05:32:48;100426.59;;;-2.21;56.41
19526;BME280;9907;42.676;26.348;2023-02-07T05:35:38;100420.72;;;-2.35;56.15
19526;BME280;9907;42.676;26.348;2023-02-07T05:38:09;100434.56;;;-2.28;56.08
19526;BME280;9907;42.676;26.348;2023-02-07T05:40:36;100456.16;;;-2.13;55.41
19526;BME280;9907;42.676;26.348;2023-02-07T05:43:02;100455.97;;;-2.02;56.39
19526;BME280;9907;42.676;26.348;2023-02-07T05:45:28;100454.91;;;-1.90;55.97
19526;BME280;9907;42.676;26.348;2023-02-07T05:47:54;100462.00;;;-1.97;56.22
19526;BME280;9907;42.676;26.348;2023-02-07T05:50:19;100461.97;;;-1.96;56.19
19526;BME280;9907;42.676;26.348;2023-02-07T05:52:45;100452.97;;;-1.81;55.83
19526;BME280;9907;42.676;26.348;2023-02-07T05:55:11;100459.91;;;-1.77;54.72
19526;BME280;9907;42.676;26.348;2023-02-07T05:57:41;100455.47;;;-1.73;54.30
19526;BME280;9907;42.676;26.348;2023-02-07T06:00:13;100453.75;;;-1.74;54.47
19526;BME280;9907;42.676;26.348;2023-02-07T06:02:39;100456.59;;;-1.88;53.92
19526;BME280;9907;42.676;26.348;2023-02-07T06:05:06;100460.63;;;-1.67;54.21
19526;BME280;9907;42.676;26.348;2023-02-07T06:07:32;100465.75;;;-1.61;54.46
19526;BME280;9907;42.676;26.348;2023-02-07T06:09:58;100460.47;;;-1.60;53.84
19526;BME280;9907;42.676;26.348;2023-02-07T06:12:23;100460.28;;;-1.49;53.39
19526;BME280;9907;42.676;26.348;2023-02-07T06:14:49;100444.22;;;-1.32;53.55
19526;BME280;9907;42.676;26.348;2023-02-07T06:17:14;100449.25;;;-1.22;53.24
19526;BME280;9907;42.676;26.348;2023-02-07T06:19:40;100459.00;;;-1.28;52.92
19526;BME280;9907;42.676;26.348;2023-02-07T06:22:05;100467.97;;;-1.40;53.09
19526;BME280;9907;42.676;26.348;2023-02-07T06:24:31;100467.22;;;-1.47;53.37
19526;BME280;9907;42.676;26.348;2023-02-07T06:26:56;100474.28;;;-1.50;53.58
19526;BME280;9907;42.676;26.348;2023-02-07T06:29:22;100457.59;;;-1.46;53.73
19526;BME280;9907;42.676;26.348;2023-02-07T06:31:47;100447.91;;;-1.42;53.77
19526;BME280;9907;42.676;26.348;2023-02-07T06:34:13;100472.53;;;-1.51;54.15
19526;BME280;9907;42.676;26.348;2023-02-07T06:36:38;100471.69;;;-1.52;54.31
19526;BME280;9907;42.676;26.348;2023-02-07T06:39:04;100484.88;;;-1.56;54.10
19526;BME280;9907;42.676;26.348;2023-02-07T06:41:29;100480.47;;;-1.54;55.15
19526;BME280;9907;42.676;26.348;2023-02-07T06:43:55;100480.16;;;-1.37;54.42
19526;BME280;9907;42.676;26.348;2023-02-07T06:46:21;100482.78;;;-1.37;53.87
19526;BME280;9907;42.676;26.348;2023-02-07T06:48:46;100475.94;;;-1.46;54.47
19526;BME280;9907;42.676;26.348;2023-02-07T06:51:12;100460.88;;;-1.33;55.42
19526;BME280;9907;42.676;26.348;2023-02-07T06:53:37;100481.72;;;-1.29;54.17
19526;BME280;9907;42.676;26.348;2023-02-07T06:56:03;100479.47;;;-1.03;53.89
19526;BME280;9907;42.676;26.348;2023-02-07T06:58:28;100484.41;;;-0.86;53.69
19526;BME280;9907;42.676;26.348;2023-02-07T07:00:54;100477.91;;;-0.68;54.74
19526;BME280;9907;42.676;26.348;2023-02-07T07:03:19;100483.78;;;-0.59;53.59
19526;BME280;9907;42.676;26.348;2023-02-07T07:05:51;100477.91;;;-0.68;53.43
19526;BME280;9907;42.676;26.348;2023-02-07T07:08:16;100484.72;;;-0.61;53.53
19526;BME280;9907;42.676;26.348;2023-02-07T07:10:43;100473.59;;;-0.71;53.79
19526;BME280;9907;42.676;26.348;2023-02-07T07:13:09;100497.72;;;-0.55;53.46
19526;BME280;9907;42.676;26.348;2023-02-07T07:15:34;100479.56;;;-0.26;52.16
19526;BME280;9907;42.676;26.348;2023-02-07T07:18:00;100488.53;;;-0.36;52.13
19526;BME280;9907;42.676;26.348;2023-02-07T07:20:26;100493.88;;;-0.40;52.61
19526;BME280;9907;42.676;26.348;2023-02-07T07:22:52;100487.75;;;-0.39;52.15
19526;BME280;9907;42.676;26.348;2023-02-07T07:25:18;100475.31;;;-0.31;51.99
19526;BME280;9907;42.676;26.348;2023-02-07T07:27:44;100488.19;;;-0.19;51.82
19526;BME280;9907;42.676;26.348;2023-02-07T07:30:10;100490.72;;;-0.16;52.09
19526;BME280;9907;42.676;26.348;2023-02-07T07:32:36;100495.22;;;-0.21;51.30
19526;BME280;9907;42.676;26.348;2023-02-07T07:35:02;100499.78;;;-0.29;51.25
19526;BME280;9907;42.676;26.348;2023-02-07T07:37:28;100492.75;;;-0.29;51.73
19526;BME280;9907;42.676;26.348;2023-02-07T07:39:54;100497.94;;;-0.26;52.14
19526;BME280;9907;42.676;26.348;2023-02-07T07:42:19;100486.59;;;-0.26;51.88
19526;BME280;9907;42.676;26.348;2023-02-07T07:44:45;100488.44;;;-0.31;52.32
19526;BME280;9907;42.676;26.348;2023-02-07T07:47:10;100488.00;;;-0.52;53.02
19526;BME280;9907;42.676;26.348;2023-02-07T07:49:37;100491.16;;;-0.36;53.23
19526;BME280;9907;42.676;26.348;2023-02-07T07:52:02;100482.00;;;-0.18;53.07
19526;BME280;9907;42.676;26.348;2023-02-07T07:54:28;100507.03;;;-0.02;52.10
19526;BME280;9907;42.676;26.348;2023-02-07T07:56:54;100491.63;;;-0.17;52.15
19526;BME280;9907;42.676;26.348;2023-02-07T07:59:20;100481.94;;;-0.52;51.93
19526;BME280;9907;42.676;26.348;2023-02-07T08:01:45;100480.75;;;-0.39;51.86
19526;BME280;9907;42.676;26.348;2023-02-07T08:04:10;100489.41;;;0.03;51.51
19526;BME280;9907;42.676;26.348;2023-02-07T08:06:36;100488.16;;;0.18;51.91
19526;BME280;9907;42.676;26.348;2023-02-07T08:09:02;100499.56;;;0.17;51.12
19526;BME280;9907;42.676;26.348;2023-02-07T08:11:27;100493.09;;;0.30;51.36
19526;BME280;9907;42.676;26.348;2023-02-07T08:13:52;100485.94;;;0.36;50.88
19526;BME280;9907;42.676;26.348;2023-02-07T08:16:18;100487.69;;;0.36;51.49
19526;BME280;9907;42.676;26.348;2023-02-07T08:18:43;100497.38;;;0.34;51.62
19526;BME280;9907;42.676;26.348;2023-02-07T08:21:09;100483.59;;;0.26;50.88
19526;BME280;9907;42.676;26.348;2023-02-07T08:23:35;100493.19;;;0.27;50.08
19526;BME280;9907;42.676;26.348;2023-02-07T08:26:00;100485.75;;;0.44;50.69
19526;BME280;9907;42.676;26.348;2023-02-07T08:28:26;100485.00;;;0.37;50.12
19526;BME280;9907;42.676;26.348;2023-02-07T08:30:53;100494.91;;;0.62;50.04
19526;BME280;9907;42.676;26.348;2023-02-07T08:33:19;100482.56;;;0.65;49.83
19526;BME280;9907;42.676;26.348;2023-02-07T08:35:44;100485.88;;;0.72;50.30
19526;BME280;9907;42.676;26.348;2023-02-07T08:38:10;100479.72;;;1.04;49.15
19526;BME280;9907;42.676;26.348;2023-02-07T08:40:36;100487.50;;;1.08;49.60
19526;BME280;9907;42.676;26.348;2023-02-07T08:43:02;100476.88;;;1.40;48.32
19526;BME280;9907;42.676;26.348;2023-02-07T08:45:31;100484.72;;;1.43;48.40
19526;BME280;9907;42.676;26.348;2023-02-07T08:47:57;100494.00;;;1.26;48.10
19526;BME280;9907;42.676;26.348;2023-02-07T08:50:24;100506.38;;;0.59;48.45
19526;BME280;9907;42.676;26.348;2023-02-07T08:52:49;100475.34;;;0.72;48.28
19526;BME280;9907;42.676;26.348;2023-02-07T08:55:15;100491.91;;;0.75;48.30
19526;BME280;9907;42.676;26.348;2023-02-07T08:57:40;100486.84;;;1.00;48.50
19526;BME280;9907;42.676;26.348;2023-02-07T09:00:07;100486.34;;;1.48;48.47
19526;BME280;9907;42.676;26.348;2023-02-07T09:02:33;100486.81;;;1.02;47.91
19526;BME280;9907;42.676;26.348;2023-02-07T09:04:58;100485.13;;;0.99;48.12
19526;BME280;9907;42.676;26.348;2023-02-07T09:07:24;100483.06;;;1.39;48.32
19526;BME280;9907;42.676;26.348;2023-02-07T09:09:49;100472.47;;;1.41;47.48
19526;BME280;9907;42.676;26.348;2023-02-07T09:12:15;100479.38;;;1.45;47.54
19526;BME280;9907;42.676;26.348;2023-02-07T09:14:40;100477.16;;;1.61;47.14
19526;BME280;9907;42.676;26.348;2023-02-07T09:17:06;100483.91;;;0.80;47.02
19526;BME280;9907;42.676;26.348;2023-02-07T09:19:33;100492.00;;;0.72;47.31
19526;BME280;9907;42.676;26.348;2023-02-07T09:21:59;100480.91;;;0.61;47.00
19526;BME280;9907;42.676;26.348;2023-02-07T09:24:25;100475.91;;;0.84;47.50
19526;BME280;9907;42.676;26.348;2023-02-07T09:26:50;100476.94;;;0.45;47.31
19526;BME280;9907;42.676;26.348;2023-02-07T09:29:16;100470.94;;;0.74;47.11
19526;BME280;9907;42.676;26.348;2023-02-07T09:31:42;100467.16;;;0.82;47.18
19526;BME280;9907;42.676;26.348;2023-02-07T09:34:08;100473.81;;;0.95;46.82
19526;BME280;9907;42.676;26.348;2023-02-07T09:36:34;100466.69;;;0.68;46.68
19526;BME280;9907;42.676;26.348;2023-02-07T09:39:00;100470.88;;;0.75;47.17
19526;BME280;9907;42.676;26.348;2023-02-07T09:44:23;100455.16;;;1.34;46.90
19526;BME280;9907;42.676;26.348;2023-02-07T09:47:01;100459.31;;;1.12;46.53
19526;BME280;9907;42.676;26.348;2023-02-07T09:52:11;100460.25;;;0.78;46.64
19526;BME280;9907;42.676;26.348;2023-02-07T09:54:43;100454.41;;;1.00;46.76
19526;BME280;9907;42.676;26.348;2023-02-07T09:57:24;100448.00;;;1.08;46.55
19526;BME280;9907;42.676;26.348;2023-02-07T10:02:35;100453.28;;;0.77;46.85
19526;BME280;9907;42.676;26.348;2023-02-07T10:05:14;100457.31;;;0.58;47.08
19526;BME280;9907;42.676;26.348;2023-02-07T10:07:43;100438.25;;;1.12;47.85
19526;BME280;9907;42.676;26.348;2023-02-07T10:10:17;100425.09;;;1.12;47.06
19526;BME280;9907;42.676;26.348;2023-02-07T10:20:53;100419.81;;;1.41;45.82
19526;BME280;9907;42.676;26.348;2023-02-07T10:31:14;100410.41;;;1.05;46.45
19526;BME280;9907;42.676;26.348;2023-02-07T10:34:10;100428.38;;;1.20;46.16
19526;BME280;9907;42.676;26.348;2023-02-07T10:36:39;100410.50;;;1.02;45.86
19526;BME280;9907;42.676;26.348;2023-02-07T10:39:28;100415.72;;;1.60;46.86
19526;BME280;9907;42.676;26.348;2023-02-07T10:41:55;100410.75;;;1.51;45.75
19526;BME280;9907;42.676;26.348;2023-02-07T10:44:22;100412.25;;;1.30;45.36
19526;BME280;9907;42.676;26.348;2023-02-07T10:46:59;100402.22;;;1.43;46.43
19526;BME280;9907;42.676;26.348;2023-02-07T10:49:28;100406.69;;;1.95;46.18
19526;BME280;9907;42.676;26.348;2023-02-07T10:51:56;100397.34;;;1.85;45.37
19526;BME280;9907;42.676;26.348;2023-02-07T10:54:23;100399.81;;;1.63;45.28
19526;BME280;9907;42.676;26.348;2023-02-07T10:56:50;100406.13;;;1.30;44.81
19526;BME280;9907;42.676;26.348;2023-02-07T10:59:29;100413.41;;;0.62;45.47
19526;BME280;9907;42.676;26.348;2023-02-07T11:01:57;100389.78;;;0.89;45.29
19526;BME280;9907;42.676;26.348;2023-02-07T11:04:35;100395.56;;;0.71;45.75
19526;BME280;9907;42.676;26.348;2023-02-07T11:07:04;100384.28;;;0.98;45.52
19526;BME280;9907;42.676;26.348;2023-02-07T11:09:30;100387.47;;;0.79;46.24
19526;BME280;9907;42.676;26.348;2023-02-07T11:11:56;100390.88;;;1.12;46.06
19526;BME280;9907;42.676;26.348;2023-02-07T11:14:24;100389.06;;;0.84;45.37
19526;BME280;9907;42.676;26.348;2023-02-07T11:16:54;100386.78;;;0.72;45.76
19526;BME280;9907;42.676;26.348;2023-02-07T11:19:26;100372.31;;;0.88;45.83
19526;BME280;9907;42.676;26.348;2023-02-07T11:22:06;100376.28;;;0.72;45.34
19526;BME280;9907;42.676;26.348;2023-02-07T11:24:35;100384.94;;;0.76;45.16
19526;BME280;9907;42.676;26.348;2023-02-07T11:27:13;100376.59;;;0.60;45.14
19526;BME280;9907;42.676;26.348;2023-02-07T11:29:54;100373.19;;;0.87;45.22
19526;BME280;9907;42.676;26.348;2023-02-07T11:32:21;100358.13;;;0.92;45.11
19526;BME280;9907;42.676;26.348;2023-02-07T11:34:56;100357.50;;;1.14;45.06
19526;BME280;9907;42.676;26.348;2023-02-07T11:37:36;100345.91;;;0.91;44.55
19526;BME280;9907;42.676;26.348;2023-02-07T11:40:22;100349.63;;;1.12;44.93
19526;BME280;9907;42.676;26.348;2023-02-07T11:43:01;100344.56;;;1.34;44.65
19526;BME280;9907;42.676;26.348;2023-02-07T11:45:30;100346.88;;;1.17;44.44
19526;BME280;9907;42.676;26.348;2023-02-07T11:47:56;100389.38;;;0.74;44.06
19526;BME280;9907;42.676;26.348;2023-02-07T11:50:36;100383.03;;;0.50;44.45
19526;BME280;9907;42.676;26.348;2023-02-07T11:53:04;100349.97;;;0.41;44.93
19526;BME280;9907;42.676;26.348;2023-02-07T11:55:34;100343.81;;;0.73;45.49
19526;BME280;9907;42.676;26.348;2023-02-07T11:58:27;100353.94;;;0.56;45.09
19526;BME280;9907;42.676;26.348;2023-02-07T12:00:56;100338.31;;;0.81;45.33
19526;BME280;9907;42.676;26.348;2023-02-07T12:03:31;100338.69;;;0.96;45.49
19526;BME280;9907;42.676;26.348;2023-02-07T12:06:00;100335.06;;;0.73;44.33
19526;BME280;9907;42.676;26.348;2023-02-07T12:08:31;100343.94;;;0.69;45.00
19526;BME280;9907;42.676;26.348;2023-02-07T12:11:01;100341.66;;;0.86;44.90
19526;BME280;9907;42.676;26.348;2023-02-07T12:14:01;100349.09;;;0.72;44.90
19526;BME280;9907;42.676;26.348;2023-02-07T12:16:29;100322.22;;;0.62;45.28
19526;BME280;9907;42.676;26.348;2023-02-07T12:19:03;100339.50;;;0.40;45.86
19526;BME280;9907;42.676;26.348;2023-02-07T12:21:42;100340.59;;;0.33;45.29
19526;BME280;9907;42.676;26.348;2023-02-07T12:24:35;100312.63;;;0.60;45.90
19526;BME280;9907;42.676;26.348;2023-02-07T12:30:02;100329.28;;;0.29;46.09
19526;BME280;9907;42.676;26.348;2023-02-07T12:37:45;100343.41;;;0.56;46.20
19526;BME280;9907;42.676;26.348;2023-02-07T12:48:24;100317.19;;;0.55;46.67
19526;BME280;9907;42.676;26.348;2023-02-07T12:54:10;100333.41;;;0.38;46.55
19526;BME280;9907;42.676;26.348;2023-02-07T12:57:02;100330.22;;;0.27;46.66
19526;BME280;9907;42.676;26.348;2023-02-07T13:05:02;100334.66;;;0.25;47.04
19526;BME280;9907;42.676;26.348;2023-02-07T13:07:42;100326.88;;;0.22;47.11
19526;BME280;9907;42.676;26.348;2023-02-07T13:13:24;100348.44;;;0.00;47.16
19526;BME280;9907;42.676;26.348;2023-02-07T13:15:58;100336.38;;;-0.07;47.57
19526;BME280;9907;42.676;26.348;2023-02-07T13:21:34;100337.88;;;0.36;47.29
19526;BME280;9907;42.676;26.348;2023-02-07T13:24:06;100337.81;;;0.37;47.05
19526;BME280;9907;42.676;26.348;2023-02-07T13:26:33;100352.28;;;0.21;47.09
19526;BME280;9907;42.676;26.348;2023-02-07T13:29:05;100335.38;;;0.30;47.27
19526;BME280;9907;42.676;26.348;2023-02-07T13:31:44;100340.63;;;0.30;47.15
19526;BME280;9907;42.676;26.348;2023-02-07T13:34:32;100353.84;;;0.28;47.41
19526;BME280;9907;42.676;26.348;2023-02-07T13:37:01;100344.91;;;0.34;47.19
19526;BME280;9907;42.676;26.348;2023-02-07T13:39:45;100359.72;;;0.06;47.23
19526;BME280;9907;42.676;26.348;2023-02-07T13:45:20;100350.44;;;0.25;46.80
19526;BME280;9907;42.676;26.348;2023-02-07T13:50:26;100344.59;;;0.14;47.13
19526;BME280;9907;42.676;26.348;2023-02-07T13:55:34;100341.09;;;0.15;47.20
19526;BME280;9907;42.676;26.348;2023-02-07T13:58:09;100339.25;;;0.17;47.18
19526;BME280;9907;42.676;26.348;2023-02-07T14:01:14;100353.94;;;0.25;47.48
19526;BME280;9907;42.676;26.348;2023-02-07T14:03:43;100337.28;;;0.25;
19526;BME280;9907;42.676;26.348;2023-02-07T14:06:24;100359.53;;;0.12;46.78
19526;BME280;9907;42.676;26.348;2023-02-07T14:09:15;100358.63;;;0.14;47.02
19526;BME280;9907;42.676;26.348;2023-02-07T14:11:55;100364.78;;;0.12;47.51
19526;BME280;9907;42.676;26.348;2023-02-07T14:14:28;100350.19;;;0.02;47.94
19526;BME280;9907;42.676;26.348;2023-02-07T14:22:30;100360.69;;;0.02;48.29
19526;BME280;9907;42.676;26.348;2023-02-07T14:27:40;100375.09;;;0.19;49.33
19526;BME280;9907;42.676;26.348;2023-02-07T14:30:19;100376.81;;;0.22;49.74
19526;BME280;9907;42.676;26.348;2023-02-07T14:37:48;100380.72;;;0.38;50.48
19526;BME280;9907;42.676;26.348;2023-02-07T14:45:37;100378.69;;;0.17;51.40
19526;BME280;9907;42.676;26.348;2023-02-07T14:48:06;100382.13;;;0.19;51.93
19526;BME280;9907;42.676;26.348;2023-02-07T14:51:00;100378.22;;;0.33;51.66
19526;BME280;9907;42.676;26.348;2023-02-07T14:53:28;100387.16;;;0.28;51.57
19526;BME280;9907;42.676;26.348;2023-02-07T14:59:34;100393.28;;;-0.07;52.67
19526;BME280;9907;42.676;26.348;2023-02-07T15:02:28;100396.06;;;-0.12;52.65
19526;BME280;9907;42.676;26.348;2023-02-07T15:04:54;100393.84;;;-0.28;52.95
19526;BME280;9907;42.676;26.348;2023-02-07T15:07:20;100401.19;;;-0.07;52.80
19526;BME280;9907;42.676;26.348;2023-02-07T15:09:46;100411.44;;;-0.32;53.23
19526;BME280;9907;42.676;26.348;2023-02-07T15:12:18;100407.84;;;-0.29;53.49
19526;BME280;9907;42.676;26.348;2023-02-07T15:14:47;100410.78;;;-0.41;53.43
19526;BME280;9907;42.676;26.348;2023-02-07T15:17:12;100409.22;;;-0.48;53.91